Terminal Aerodrome Forecast
Issued by NWS Corpus Christi, TX

Home | Current Version | Previous Version | Text Only | Print | Product List | Glossary On
Versions: 1 2 3 4 5 6 7 8 9 10 11 12
000
FTUS44 KCRP 250500
TAFVCT
TAF
KVCT 250528Z 2506/2606 VRB04KT P6SM SKC
     FM251700 16012G20KT P6SM SKC
     FM260200 14006KT P6SM FEW030=

USA.gov is the U.S. government's official web portal to all federal, state and local government web resources and services.